createdAt,value
2018-05-12T19:19:33.864Z,26.33
2018-05-12T19:31:47.791Z,24.84
2018-05-12T19:34:14.752Z,24.46
2018-05-12T19:36:41.692Z,24.19
2018-05-12T19:39:08.697Z,23.99
2018-05-12T19:41:36.154Z,23.75
2018-05-12T19:44:03.119Z,23.65
2018-05-12T19:46:30.075Z,23.51
2018-05-12T19:48:57.033Z,23.36
2018-05-12T19:51:24.027Z,23.33
2018-05-12T19:53:51.016Z,23.26
2018-05-12T19:56:17.951Z,23.20
2018-05-12T19:58:44.953Z,23.07
2018-05-12T20:01:11.886Z,23.05
2018-05-12T20:03:38.968Z,23.03
2018-05-12T20:06:06.947Z,22.99
2018-05-12T20:08:33.907Z,22.92
2018-05-12T20:11:01.041Z,22.90
2018-05-12T20:13:27.990Z,22.89
2018-05-12T20:15:55.007Z,22.84
2018-05-12T20:18:21.879Z,22.84
2018-05-12T20:20:48.819Z,22.80
2018-05-12T20:23:15.759Z,22.77
2018-05-12T20:25:42.708Z,22.75
2018-05-12T20:28:09.652Z,22.72
2018-05-12T20:30:36.612Z,22.57
2018-05-12T20:33:03.567Z,22.63
2018-05-12T20:35:31.127Z,22.58
2018-05-12T20:37:58.187Z,22.44
2018-05-12T20:40:25.203Z,22.43
2018-05-12T20:42:52.136Z,22.45
2018-05-12T20:45:19.095Z,22.40
2018-05-12T20:47:46.608Z,22.41
2018-05-12T20:50:13.612Z,22.29
2018-05-12T20:52:40.490Z,22.24
2018-05-12T20:55:07.452Z,22.20
2018-05-12T20:57:34.392Z,22.17
2018-05-12T21:00:01.378Z,22.14
2018-05-12T21:02:28.315Z,22.15
2018-05-12T21:04:55.263Z,22.13
2018-05-12T21:07:22.197Z,22.13
2018-05-12T21:09:49.156Z,22.04
2018-05-12T21:12:16.094Z,22.07
2018-05-12T21:14:43.043Z,22.05
2018-05-12T21:17:09.984Z,22.04
2018-05-12T21:19:36.934Z,21.92
2018-05-12T21:22:03.886Z,21.93
2018-05-12T21:24:30.823Z,21.98
2018-05-12T21:26:57.767Z,21.93
2018-05-12T21:29:24.747Z,21.91
2018-05-12T21:31:51.659Z,21.74
2018-05-12T21:34:18.610Z,21.85
2018-05-12T21:36:45.556Z,21.85
2018-05-12T21:39:12.503Z,21.79
2018-05-12T21:41:39.450Z,21.73
2018-05-12T21:44:06.426Z,21.74
2018-05-12T21:46:33.386Z,21.67
2018-05-12T21:49:00.343Z,21.57
2018-05-12T21:51:27.285Z,21.56
2018-05-12T21:53:54.273Z,21.56
2018-05-12T21:56:21.214Z,21.50
2018-05-12T21:58:48.163Z,21.46
2018-05-12T22:01:15.123Z,21.46
2018-05-12T22:03:42.245Z,21.42
2018-05-12T22:06:09.195Z,21.40
2018-05-12T22:08:36.143Z,21.31
2018-05-12T22:11:03.107Z,21.32
2018-05-12T22:13:30.047Z,21.35
2018-05-12T22:15:56.991Z,21.39
2018-05-12T22:18:23.937Z,21.30
2018-05-12T22:20:50.891Z,21.21
2018-05-12T22:23:17.841Z,21.22
2018-05-12T22:25:44.798Z,21.02
2018-05-12T22:28:11.747Z,21.16
2018-05-12T22:30:38.740Z,21.12
2018-05-12T22:33:05.659Z,20.98
2018-05-12T22:35:32.613Z,20.94
2018-05-12T22:37:59.555Z,20.91
2018-05-12T22:40:26.520Z,20.85
2018-05-12T22:42:53.461Z,20.78
2018-05-12T22:45:20.407Z,20.66
2018-05-12T22:47:47.351Z,20.66
2018-05-12T22:50:14.292Z,20.63
2018-05-12T22:52:41.245Z,20.58
2018-05-12T22:55:08.195Z,20.45
2018-05-12T22:57:35.299Z,20.46
2018-05-12T23:00:03.019Z,20.40
2018-05-12T23:02:30.797Z,20.33
2018-05-12T23:04:58.049Z,20.22
2018-05-12T23:07:25.712Z,20.22
2018-05-12T23:09:52.890Z,20.18
2018-05-12T23:12:22.766Z,20.19
2018-05-12T23:14:49.730Z,20.11
2018-05-12T23:17:17.471Z,20.11
2018-05-12T23:19:45.468Z,20.12
2018-05-12T23:22:12.566Z,20.12
2018-05-12T23:24:41.250Z,20.10
2018-05-12T23:27:08.985Z,20.05
2018-05-12T23:29:36.071Z,20.04
2018-05-12T23:32:05.817Z,20.12
2018-05-12T23:34:37.141Z,20.02
2018-05-12T23:37:04.111Z,20.02
2018-05-12T23:39:32.000Z,20.01
2018-05-12T23:41:59.003Z,19.96
2018-05-12T23:44:26.031Z,19.95
2018-05-12T23:46:52.999Z,19.90
2018-05-12T23:49:20.020Z,19.87
2018-05-12T23:51:47.022Z,19.76
2018-05-12T23:54:14.027Z,19.81
2018-05-12T23:56:40.996Z,19.75
2018-05-12T23:59:07.960Z,19.77
